KBKL/BKL METAR and TAF weather

Enter ICAO airport designator
Station Type Date Time Source
KBKL METAR 2020/01/24 15:53 UTC NOAA

KBKL 241553Z 15013KT 8SM -RA OVC065 06/01 A3003 RMK AO2 SLP173 P0001 T00560011


Station Type Date Time Source
KBKL Decoded METAR 2020/01/24 15:53 UTC NOAA

CLEVELAND BURKE LAKEFRONT, OH, United States (KBKL) 41-32N 81-40W 184M
Jan 24, 2020 - 10:53 AM EST / 2020.01.24 1553 UTC
Wind: from the SSE (150 degrees) at 15 MPH (13 KT):0
Visibility: 8 mile(s):0
Sky conditions: overcast
Weather: light rain
Precipitation last hour: 0.01 inches
Temperature: 42.1 F (5.6 C)
Dew Point: 34.0 F (1.1 C)
Relative Humidity: 72%
Pressure (altimeter): 30.03 in. Hg (1016 hPa)
ob: KBKL 241553Z 15013KT 8SM -RA OVC065 06/01 A3003 RMK AO2 SLP173 P0001 T00560011
cycle: 16

Station Type Date Time Source
KBKL TAF UTC NOAA

Error!

Example: see airport list